createdAt,value
2022-08-26T00:00:39.198Z,72.23
2022-08-26T00:01:39.178Z,71.42
2022-08-26T00:02:39.346Z,71.62
2022-08-26T00:03:39.231Z,71.62
2022-08-26T00:04:39.173Z,71.73
2022-08-26T00:05:39.158Z,71.73
2022-08-26T00:06:39.152Z,71.23
2022-08-26T00:07:39.142Z,71.12
2022-08-26T00:08:39.150Z,71.03
2022-08-26T00:09:40.272Z,70.46
2022-08-26T00:10:39.126Z,70.62
2022-08-26T00:11:39.107Z,71.33
2022-08-26T00:12:39.110Z,71.53
2022-08-26T00:13:39.126Z,71.12
2022-08-26T00:14:39.101Z,71.16
2022-08-26T00:15:39.082Z,70.86
2022-08-26T00:16:40.943Z,70.86
2022-08-26T00:17:40.401Z,71.06
2022-08-26T00:18:40.778Z,71.46
2022-08-26T00:19:39.079Z,71.76
2022-08-26T00:20:39.049Z,71.26
2022-08-26T00:21:39.047Z,71.56
2022-08-26T00:22:39.045Z,71.46
2022-08-26T00:23:39.038Z,71.56
2022-08-26T00:24:39.053Z,71.26
2022-08-26T00:25:39.027Z,71.66
2022-08-26T00:26:39.018Z,71.26
2022-08-26T00:27:39.001Z,71.76
2022-08-26T00:28:38.997Z,71.16
2022-08-26T00:29:39.010Z,71.66
2022-08-26T00:30:38.981Z,72.16
2022-08-26T00:31:39.041Z,71.86
2022-08-26T00:32:38.974Z,71.46
2022-08-26T00:33:38.975Z,71.36
2022-08-26T00:34:38.966Z,71.46
2022-08-26T00:35:38.950Z,72.06
2022-08-26T00:36:40.735Z,72.36
2022-08-26T00:37:38.942Z,72.16
2022-08-26T00:38:38.917Z,71.76
2022-08-26T00:39:38.975Z,71.76
2022-08-26T00:40:38.927Z,71.66
2022-08-26T00:41:38.904Z,71.26
2022-08-26T00:42:38.888Z,72.36
2022-08-26T00:43:47.759Z,72.06
2022-08-26T00:44:39.889Z,71.46
2022-08-26T00:45:38.949Z,71.16
2022-08-26T00:46:38.872Z,71.96
2022-08-26T00:47:38.868Z,71.86
2022-08-26T00:48:38.852Z,72.26
2022-08-26T00:49:38.852Z,72.96
2022-08-26T00:50:38.848Z,72.56
2022-08-26T00:51:38.852Z,72.76
2022-08-26T00:52:38.851Z,72.36
2022-08-26T00:53:38.824Z,73.16
2022-08-26T00:54:38.818Z,73.46
2022-08-26T00:55:38.810Z,73.06
2022-08-26T00:56:38.830Z,72.56
2022-08-26T00:57:38.795Z,72.86
2022-08-26T00:58:38.801Z,72.76
2022-08-26T00:59:38.973Z,72.96
2022-08-26T01:00:38.833Z,72.86
2022-08-26T01:01:38.787Z,72.36
2022-08-26T01:02:38.804Z,72.76
2022-08-26T01:03:38.768Z,72.46
2022-08-26T01:04:38.753Z,72.46
2022-08-26T01:05:38.739Z,72.69
2022-08-26T01:06:38.751Z,71.86
2022-08-26T01:07:38.758Z,72.19
2022-08-26T01:08:38.723Z,72.00
2022-08-26T01:09:38.722Z,71.19
2022-08-26T01:10:38.702Z,71.19
2022-08-26T01:11:38.706Z,71.69
2022-08-26T01:12:40.204Z,71.89
2022-08-26T01:13:38.682Z,72.43
2022-08-26T01:14:38.679Z,71.89
2022-08-26T01:15:38.669Z,71.63
2022-08-26T01:16:38.741Z,71.53
2022-08-26T01:17:38.658Z,71.63
2022-08-26T01:18:38.666Z,72.63
2022-08-26T01:19:38.642Z,73.13
2022-08-26T01:20:38.639Z,73.16
2022-08-26T01:21:40.536Z,72.53
2022-08-26T01:22:38.622Z,72.33
2022-08-26T01:23:38.622Z,71.83
2022-08-26T01:24:38.607Z,72.97
2022-08-26T01:25:38.591Z,72.93
2022-08-26T01:26:38.602Z,73.27
2022-08-26T01:27:38.601Z,72.97
2022-08-26T01:28:38.606Z,72.66
2022-08-26T01:29:38.602Z,71.96
2022-08-26T01:30:38.577Z,72.63
2022-08-26T01:31:39.081Z,73.27
2022-08-26T01:32:38.963Z,73.77
2022-08-26T01:33:42.205Z,73.47
2022-08-26T01:34:38.530Z,73.67
2022-08-26T01:35:38.535Z,73.97
2022-08-26T01:36:38.534Z,73.83
2022-08-26T01:37:39.102Z,73.67
2022-08-26T01:38:38.514Z,73.67
2022-08-26T01:39:38.513Z,74.57
2022-08-26T01:40:38.511Z,74.67
2022-08-26T01:41:38.498Z,74.67
2022-08-26T01:42:38.498Z,74.87
2022-08-26T01:43:38.483Z,75.17
2022-08-26T01:44:38.470Z,74.87
2022-08-26T01:45:38.521Z,75.17
2022-08-26T01:46:38.474Z,75.37
2022-08-26T01:47:38.475Z,74.37
2022-08-26T01:48:38.446Z,75.17
2022-08-26T01:49:38.442Z,75.57
2022-08-26T01:50:38.433Z,75.27
2022-08-26T01:51:38.421Z,75.37
2022-08-26T01:52:38.430Z,75.07
2022-08-26T01:53:38.414Z,75.97
2022-08-26T01:54:38.414Z,75.77
2022-08-26T01:55:38.405Z,75.77
2022-08-26T01:56:38.394Z,76.07
2022-08-26T01:57:38.419Z,76.67
2022-08-26T01:58:38.382Z,76.17
2022-08-26T01:59:38.370Z,76.47
2022-08-26T02:00:38.452Z,76.47
2022-08-26T02:01:38.361Z,76.28
2022-08-26T02:02:38.373Z,76.61
2022-08-26T02:03:38.727Z,75.77
2022-08-26T02:04:38.393Z,75.67
2022-08-26T02:05:38.344Z,76.67
2022-08-26T02:06:38.332Z,75.77
2022-08-26T02:07:38.346Z,76.07
2022-08-26T02:08:38.341Z,75.67
2022-08-26T02:09:38.437Z,75.17
2022-08-26T02:10:38.308Z,75.67
2022-08-26T02:11:38.309Z,75.17
2022-08-26T02:12:38.293Z,75.37
2022-08-26T02:13:38.300Z,76.01
2022-08-26T02:14:44.009Z,75.91
2022-08-26T02:15:38.277Z,75.17
2022-08-26T02:16:38.284Z,75.67
2022-08-26T02:17:38.264Z,75.91
2022-08-26T02:18:38.276Z,75.91
2022-08-26T02:19:38.249Z,76.61
2022-08-26T02:20:38.252Z,76.31
2022-08-26T02:21:38.237Z,75.71
2022-08-26T02:22:38.232Z,75.34
2022-08-26T02:23:38.254Z,76.54
2022-08-26T02:24:38.224Z,76.85
2022-08-26T02:25:38.217Z,76.75
2022-08-26T02:26:38.213Z,76.75
2022-08-26T02:27:38.203Z,76.54
2022-08-26T02:28:38.200Z,76.54
2022-08-26T02:29:38.189Z,76.45
2022-08-26T02:30:38.189Z,76.48
2022-08-26T02:31:38.246Z,76.58
2022-08-26T02:32:38.171Z,76.54
2022-08-26T02:33:38.162Z,76.68
2022-08-26T02:34:39.156Z,77.22
2022-08-26T02:35:38.176Z,77.02
2022-08-26T02:36:38.140Z,76.72
2022-08-26T02:37:38.136Z,77.02
2022-08-26T02:38:38.132Z,76.82
2022-08-26T02:39:38.124Z,77.02
2022-08-26T02:40:38.139Z,76.62
2022-08-26T02:41:44.920Z,76.92
2022-08-26T02:42:39.100Z,77.52
2022-08-26T02:43:38.095Z,77.46
2022-08-26T02:44:38.091Z,77.36
2022-08-26T02:45:38.087Z,77.46
2022-08-26T02:46:38.163Z,77.46
2022-08-26T02:47:38.068Z,77.56
2022-08-26T02:48:38.061Z,77.36
2022-08-26T02:49:38.055Z,78.56
2022-08-26T02:50:38.052Z,78.36
2022-08-26T02:51:38.065Z,78.46
2022-08-26T02:52:38.035Z,78.56
2022-08-26T02:53:38.031Z,78.27
2022-08-26T02:54:38.024Z,77.29
2022-08-26T02:55:38.008Z,77.96
2022-08-26T02:56:38.031Z,78.36
2022-08-26T02:57:38.004Z,77.96
2022-08-26T02:58:37.992Z,77.96
2022-08-26T02:59:37.992Z,78.27
2022-08-26T03:00:38.010Z,78.36
2022-08-26T03:01:38.016Z,78.10
2022-08-26T03:02:37.981Z,77.76
2022-08-26T03:03:37.959Z,78.16
2022-08-26T03:04:37.947Z,78.46
2022-08-26T03:05:37.943Z,77.90
2022-08-26T03:06:37.939Z,76.89
2022-08-26T03:07:37.959Z,77.06
2022-08-26T03:08:37.923Z,78.40
2022-08-26T03:09:37.924Z,78.60
2022-08-26T03:10:37.907Z,78.30
2022-08-26T03:11:37.978Z,78.70
2022-08-26T03:12:37.953Z,79.30
2022-08-26T03:13:37.911Z,79.21
2022-08-26T03:14:37.903Z,79.41
2022-08-26T03:15:37.878Z,79.41
2022-08-26T03:16:37.968Z,79.50
2022-08-26T03:17:37.884Z,78.40
2022-08-26T03:18:37.855Z,78.20
2022-08-26T03:19:37.851Z,78.84
2022-08-26T03:20:37.847Z,78.64
2022-08-26T03:21:37.832Z,78.54
2022-08-26T03:22:37.828Z,78.23
2022-08-26T03:23:37.840Z,78.14
2022-08-26T03:24:37.820Z,77.53
2022-08-26T03:25:37.799Z,79.24
2022-08-26T03:26:37.808Z,79.14
2022-08-26T03:27:37.795Z,77.63
2022-08-26T03:28:37.811Z,77.83
2022-08-26T03:29:37.819Z,78.07
2022-08-26T03:30:37.783Z,78.14
2022-08-26T03:31:37.817Z,78.44
2022-08-26T03:32:37.774Z,79.44
2022-08-26T03:33:37.783Z,79.08
2022-08-26T03:34:37.760Z,79.44
2022-08-26T03:35:37.751Z,79.28
2022-08-26T03:36:37.757Z,79.68
2022-08-26T03:37:37.734Z,79.68
2022-08-26T03:38:37.740Z,81.39
2022-08-26T03:39:37.738Z,80.58
2022-08-26T03:40:37.707Z,80.79
2022-08-26T03:41:37.711Z,80.79
2022-08-26T03:42:37.702Z,79.79
2022-08-26T03:43:37.690Z,79.48
2022-08-26T03:44:37.690Z,79.08
2022-08-26T03:45:37.694Z,78.54
2022-08-26T03:46:37.733Z,78.58
2022-08-26T03:47:37.672Z,78.84
2022-08-26T03:48:37.663Z,78.84
2022-08-26T03:49:37.671Z,79.99
2022-08-26T03:50:37.658Z,79.38
2022-08-26T03:51:38.868Z,78.03
2022-08-26T03:52:41.802Z,78.54
2022-08-26T03:53:39.627Z,78.67
2022-08-26T03:54:37.623Z,78.58
2022-08-26T03:55:37.623Z,79.58
2022-08-26T03:56:37.607Z,79.44
2022-08-26T03:57:37.603Z,77.80
2022-08-26T03:58:37.598Z,77.23
2022-08-26T03:59:37.575Z,76.69
2022-08-26T04:00:37.595Z,77.13
2022-08-26T04:01:37.658Z,76.93
2022-08-26T04:02:37.589Z,77.33
2022-08-26T04:03:37.570Z,77.50
2022-08-26T04:04:37.558Z,76.59
2022-08-26T04:05:37.559Z,76.79
2022-08-26T04:06:37.547Z,76.79
2022-08-26T04:07:37.534Z,76.73
2022-08-26T04:08:37.546Z,76.73
2022-08-26T04:09:37.530Z,77.29
2022-08-26T04:10:37.527Z,77.73
2022-08-26T04:11:38.620Z,77.23
2022-08-26T04:12:37.507Z,77.13
2022-08-26T04:13:37.514Z,77.33
2022-08-26T04:14:37.779Z,77.33
2022-08-26T04:15:37.491Z,77.03
2022-08-26T04:16:37.474Z,77.73
2022-08-26T04:17:37.458Z,77.63
2022-08-26T04:18:37.467Z,78.14
2022-08-26T04:19:38.470Z,77.63
2022-08-26T04:20:37.434Z,76.93
2022-08-26T04:21:37.435Z,77.87
2022-08-26T04:22:37.435Z,79.99
2022-08-26T04:23:47.317Z,80.19
2022-08-26T04:24:38.451Z,79.88
2022-08-26T04:25:37.406Z,79.38
2022-08-26T04:26:39.498Z,79.88
2022-08-26T04:27:38.402Z,80.49
2022-08-26T04:28:37.398Z,81.29
2022-08-26T04:29:37.391Z,80.99
2022-08-26T04:30:37.394Z,80.39
2022-08-26T04:31:37.445Z,80.58
2022-08-26T04:32:37.358Z,81.23
2022-08-26T04:33:37.350Z,81.23
2022-08-26T04:34:37.371Z,81.53
2022-08-26T04:35:37.347Z,81.33
2022-08-26T04:36:37.540Z,80.73
2022-08-26T04:37:37.334Z,79.92
2022-08-26T04:38:37.321Z,80.12
2022-08-26T04:39:37.318Z,79.92
2022-08-26T04:40:37.310Z,81.13
2022-08-26T04:41:37.295Z,81.33
2022-08-26T04:42:37.311Z,81.63
2022-08-26T04:43:37.282Z,81.73
2022-08-26T04:44:37.278Z,82.07
2022-08-26T04:45:37.382Z,82.28
2022-08-26T04:46:39.975Z,81.98
2022-08-26T04:47:38.292Z,81.98
2022-08-26T04:48:37.263Z,81.98
2022-08-26T04:49:37.258Z,82.18
2022-08-26T04:50:37.243Z,82.24
2022-08-26T04:51:37.233Z,81.73
2022-08-26T04:52:37.243Z,81.53
2022-08-26T04:53:37.214Z,81.84
2022-08-26T04:54:37.210Z,82.07
2022-08-26T04:55:39.700Z,81.67
2022-08-26T04:56:38.198Z,82.04
2022-08-26T04:57:37.187Z,82.58
2022-08-26T04:58:37.206Z,81.77
2022-08-26T04:59:39.331Z,82.54
2022-08-26T05:00:38.172Z,82.58
2022-08-26T05:01:39.687Z,82.64
2022-08-26T05:02:37.155Z,82.38
2022-08-26T05:03:37.185Z,82.34
2022-08-26T05:04:37.162Z,82.38
2022-08-26T05:05:37.144Z,82.78
2022-08-26T05:06:37.295Z,82.78
2022-08-26T05:07:37.122Z,82.88
2022-08-26T05:08:37.119Z,82.78
2022-08-26T05:09:37.154Z,82.98
2022-08-26T05:10:37.112Z,82.98
2022-08-26T05:11:37.094Z,82.78
2022-08-26T05:12:37.081Z,82.58
2022-08-26T05:13:37.087Z,81.93
2022-08-26T05:14:37.093Z,81.73
2022-08-26T05:15:37.112Z,81.73
2022-08-26T05:16:37.056Z,81.53
2022-08-26T05:17:37.045Z,80.79
2022-08-26T05:18:37.046Z,81.19
2022-08-26T05:19:37.042Z,81.53
2022-08-26T05:20:37.046Z,81.59
2022-08-26T05:21:37.034Z,82.10
2022-08-26T05:22:37.018Z,81.93
2022-08-26T05:23:37.006Z,82.64
2022-08-26T05:24:37.018Z,83.45
2022-08-26T05:25:37.035Z,83.65
2022-08-26T05:26:37.003Z,83.95
2022-08-26T05:27:36.990Z,84.80
2022-08-26T05:28:36.982Z,84.25
2022-08-26T05:29:36.974Z,84.05
2022-08-26T05:30:37.987Z,83.75
2022-08-26T05:31:36.963Z,82.74
2022-08-26T05:32:36.958Z,82.50
2022-08-26T05:33:36.962Z,82.30
2022-08-26T05:34:36.934Z,81.49
2022-08-26T05:35:36.934Z,81.49
2022-08-26T05:36:37.130Z,80.65
2022-08-26T05:37:36.919Z,79.85
2022-08-26T05:38:36.914Z,79.74
2022-08-26T05:39:36.923Z,79.50
2022-08-26T05:40:36.953Z,79.44
2022-08-26T05:41:38.446Z,79.00
2022-08-26T05:42:36.886Z,79.21
2022-08-26T05:43:36.874Z,79.41
2022-08-26T05:44:55.703Z,79.30
2022-08-26T05:45:40.226Z,79.21
2022-08-26T05:46:36.907Z,80.21
2022-08-26T05:47:36.868Z,81.01
2022-08-26T05:48:36.847Z,81.21
2022-08-26T05:49:36.842Z,81.12
2022-08-26T05:50:37.826Z,81.01
2022-08-26T05:51:36.834Z,80.61
2022-08-26T05:52:36.843Z,80.31
2022-08-26T05:53:36.813Z,79.81
2022-08-26T05:54:36.814Z,79.47
2022-08-26T05:55:36.803Z,79.47
2022-08-26T05:56:36.790Z,78.46
2022-08-26T05:57:40.463Z,78.86
2022-08-26T05:58:38.774Z,78.53
2022-08-26T05:59:36.769Z,77.83
2022-08-26T06:00:36.765Z,77.92
2022-08-26T06:01:36.783Z,77.79
2022-08-26T06:02:36.789Z,77.48
2022-08-26T06:03:36.753Z,77.28
2022-08-26T06:04:36.739Z,77.39
2022-08-26T06:05:39.182Z,77.19
2022-08-26T06:06:37.726Z,76.95
2022-08-26T06:07:36.726Z,76.95
2022-08-26T06:08:36.735Z,76.65
2022-08-26T06:09:36.726Z,76.95
2022-08-26T06:10:36.697Z,76.54
2022-08-26T06:11:36.714Z,76.91
2022-08-26T06:12:36.673Z,76.51
2022-08-26T06:13:36.682Z,75.51
2022-08-26T06:14:36.681Z,76.37
2022-08-26T06:15:37.745Z,76.21
2022-08-26T06:16:36.655Z,75.67
2022-08-26T06:17:36.654Z,75.57
2022-08-26T06:18:36.634Z,75.87
2022-08-26T06:19:36.661Z,76.04
2022-08-26T06:20:36.637Z,75.23
2022-08-26T06:21:36.626Z,76.50
2022-08-26T06:22:36.617Z,76.90
2022-08-26T06:23:36.617Z,76.87
2022-08-26T06:24:36.597Z,75.52
2022-08-26T06:25:36.605Z,75.39
2022-08-26T06:26:36.700Z,75.79
2022-08-26T06:27:36.581Z,75.56
2022-08-26T06:28:36.569Z,75.42
2022-08-26T06:29:36.572Z,74.29
2022-08-26T06:30:36.569Z,72.95
2022-08-26T06:31:36.557Z,74.21
2022-08-26T06:32:36.549Z,71.69
2022-08-26T06:33:36.558Z,70.86
2022-08-26T06:34:36.521Z,71.32
2022-08-26T06:35:36.541Z,70.79
2022-08-26T06:36:36.522Z,68.96
2022-08-26T06:37:36.517Z,69.06
2022-08-26T06:38:36.552Z,65.84
2022-08-26T06:39:36.507Z,67.74
2022-08-26T06:40:36.527Z,67.50
2022-08-26T06:41:39.085Z,66.58
2022-08-26T06:42:38.481Z,65.55
2022-08-26T06:43:36.474Z,65.16
2022-08-26T06:44:36.469Z,62.64
2022-08-26T06:45:36.461Z,63.37
2022-08-26T06:46:36.554Z,64.76
2022-08-26T06:47:36.441Z,65.65
2022-08-26T06:48:36.450Z,63.64
2022-08-26T06:49:36.501Z,63.54
2022-08-26T06:50:36.426Z,63.90
2022-08-26T06:51:36.465Z,63.60
2022-08-26T06:52:36.429Z,63.54
2022-08-26T06:53:36.413Z,63.64
2022-08-26T06:54:36.401Z,63.54
2022-08-26T06:55:36.400Z,64.53
2022-08-26T06:56:36.385Z,64.86
2022-08-26T06:57:37.753Z,63.93
2022-08-26T06:58:36.377Z,64.26
2022-08-26T06:59:36.389Z,65.45
2022-08-26T07:00:36.369Z,66.18
2022-08-26T07:01:36.403Z,66.74
2022-08-26T07:02:36.368Z,69.73
2022-08-26T07:03:39.494Z,71.05
2022-08-26T07:04:36.357Z,71.59
2022-08-26T07:05:36.325Z,72.49
2022-08-26T07:06:36.327Z,72.52
2022-08-26T07:07:36.331Z,73.42
2022-08-26T07:08:36.311Z,73.45
2022-08-26T07:09:36.308Z,73.32
2022-08-26T07:10:36.307Z,72.92
2022-08-26T07:11:37.295Z,73.05
2022-08-26T07:12:36.326Z,74.95
2022-08-26T07:13:36.275Z,74.38
2022-08-26T07:14:37.275Z,74.68
2022-08-26T07:15:36.295Z,74.65
2022-08-26T07:16:36.255Z,73.45
2022-08-26T07:17:36.282Z,73.52
2022-08-26T07:18:36.243Z,73.35
2022-08-26T07:19:36.235Z,73.25
2022-08-26T07:20:36.223Z,73.11
2022-08-26T07:21:36.227Z,72.42
2022-08-26T07:22:36.222Z,73.11
2022-08-26T07:23:36.227Z,72.68
2022-08-26T07:24:36.212Z,72.28
2022-08-26T07:25:36.211Z,71.89
2022-08-26T07:26:36.221Z,72.68
2022-08-26T07:27:36.189Z,72.78
2022-08-26T07:28:36.223Z,71.95
2022-08-26T07:29:36.231Z,71.85
2022-08-26T07:30:36.202Z,71.45
2022-08-26T07:31:39.257Z,70.92
2022-08-26T07:32:36.152Z,70.82
2022-08-26T07:33:36.135Z,70.59
2022-08-26T07:34:36.142Z,69.46
2022-08-26T07:35:36.120Z,69.76
2022-08-26T07:36:36.122Z,69.82
2022-08-26T07:37:39.320Z,69.03
2022-08-26T07:38:36.106Z,69.13
2022-08-26T07:39:36.129Z,69.39
2022-08-26T07:40:36.117Z,68.60
2022-08-26T07:41:36.103Z,68.99
2022-08-26T07:42:36.094Z,68.33
2022-08-26T07:43:36.074Z,69.03
2022-08-26T07:44:36.067Z,68.93
2022-08-26T07:45:36.086Z,68.73
2022-08-26T07:46:36.059Z,68.50
2022-08-26T07:47:36.043Z,69.09
2022-08-26T07:48:36.051Z,68.46
2022-08-26T07:49:36.091Z,68.70
2022-08-26T07:50:49.294Z,67.60
2022-08-26T07:51:37.024Z,68.37
2022-08-26T07:52:36.026Z,67.87
2022-08-26T07:53:36.035Z,66.64
2022-08-26T07:54:36.014Z,66.64
2022-08-26T07:55:36.013Z,67.04
2022-08-26T07:56:35.991Z,66.85
2022-08-26T07:57:35.979Z,66.74
2022-08-26T07:58:35.984Z,66.74
2022-08-26T07:59:35.978Z,66.64
2022-08-26T08:00:35.967Z,66.81
2022-08-26T08:01:35.976Z,66.58
2022-08-26T08:02:35.949Z,66.08
2022-08-26T08:03:35.947Z,65.99
2022-08-26T08:04:36.001Z,65.75
2022-08-26T08:05:35.945Z,64.17
2022-08-26T08:06:35.971Z,64.04
2022-08-26T08:07:44.479Z,64.14
2022-08-26T08:08:36.918Z,64.43
2022-08-26T08:09:35.899Z,63.81
2022-08-26T08:10:35.918Z,63.91
2022-08-26T08:11:35.894Z,64.11
2022-08-26T08:12:35.903Z,63.45
2022-08-26T08:13:35.874Z,62.36
2022-08-26T08:14:35.870Z,61.83
2022-08-26T08:15:35.862Z,61.83
2022-08-26T08:16:39.111Z,62.04
2022-08-26T08:17:36.868Z,61.41
2022-08-26T08:18:35.837Z,59.90
2022-08-26T08:19:39.011Z,58.26
2022-08-26T08:20:35.835Z,58.36
2022-08-26T08:21:35.842Z,58.33
2022-08-26T08:22:35.826Z,57.02
2022-08-26T08:23:35.819Z,56.73
2022-08-26T08:24:35.802Z,57.09
2022-08-26T08:25:35.802Z,57.06
2022-08-26T08:26:35.797Z,56.08
2022-08-26T08:27:35.806Z,55.24
2022-08-26T08:28:35.773Z,54.72
2022-08-26T08:29:35.773Z,54.39
2022-08-26T08:30:35.828Z,53.70
2022-08-26T08:32:37.767Z,55.36
2022-08-26T08:33:35.761Z,55.53
2022-08-26T08:34:35.782Z,55.60
2022-08-26T08:35:35.762Z,54.22
2022-08-26T08:36:36.214Z,53.49
2022-08-26T08:37:35.713Z,52.99
2022-08-26T08:38:35.714Z,52.28
2022-08-26T08:39:35.721Z,51.30
2022-08-26T08:40:35.820Z,52.01
2022-08-26T08:41:36.709Z,52.28
2022-08-26T08:42:35.689Z,51.98
2022-08-26T08:43:37.818Z,52.31
2022-08-26T08:44:35.700Z,52.08
2022-08-26T08:45:37.141Z,51.25
2022-08-26T08:46:36.700Z,50.37
2022-08-26T08:47:35.649Z,50.56
2022-08-26T08:48:35.649Z,50.24
2022-08-26T08:49:35.644Z,50.14
2022-08-26T08:50:35.645Z,50.04
2022-08-26T08:51:35.625Z,49.87
2022-08-26T08:52:36.642Z,49.97
2022-08-26T08:53:35.615Z,50.63
2022-08-26T08:54:35.613Z,50.12
2022-08-26T08:55:35.625Z,49.09
2022-08-26T08:56:35.601Z,47.77
2022-08-26T08:57:35.608Z,46.86
2022-08-26T08:58:35.601Z,46.45
2022-08-26T08:59:35.578Z,46.11
2022-08-26T09:00:39.155Z,46.82
2022-08-26T09:01:36.603Z,46.75
2022-08-26T09:02:35.605Z,46.11
2022-08-26T09:03:35.566Z,45.58
2022-08-26T09:04:35.552Z,45.26
2022-08-26T09:05:35.551Z,45.31
2022-08-26T09:06:35.550Z,45.17
2022-08-26T09:07:36.757Z,43.37
2022-08-26T09:08:36.595Z,42.06
2022-08-26T09:09:35.525Z,43.59
2022-08-26T09:10:35.521Z,44.31
2022-08-26T09:11:35.500Z,43.90
2022-08-26T09:12:35.508Z,45.62
2022-08-26T09:13:35.518Z,45.14
2022-08-26T09:14:35.489Z,46.50
2022-08-26T09:15:35.494Z,43.82
2022-08-26T09:16:35.566Z,43.66
2022-08-26T09:17:35.472Z,42.43
2022-08-26T09:18:35.481Z,42.21
2022-08-26T09:19:35.464Z,40.72
2022-08-26T09:20:35.466Z,39.37
2022-08-26T09:21:35.465Z,41.16
2022-08-26T09:22:35.454Z,42.40
2022-08-26T09:23:35.942Z,45.03
2022-08-26T09:24:39.571Z,41.85
2022-08-26T09:25:37.432Z,41.36
2022-08-26T09:26:35.430Z,42.00
2022-08-26T09:27:35.416Z,39.03
2022-08-26T09:28:35.417Z,39.01
2022-08-26T09:29:35.436Z,38.54
2022-08-26T09:30:35.452Z,39.04
2022-08-26T09:31:35.532Z,39.53
2022-08-26T09:32:35.389Z,38.32
2022-08-26T09:33:35.387Z,37.15
2022-08-26T09:34:35.384Z,37.53
2022-08-26T09:35:35.394Z,36.66
2022-08-26T09:36:39.200Z,38.40
2022-08-26T09:37:36.434Z,38.58
2022-08-26T09:38:35.358Z,37.61
2022-08-26T09:39:35.366Z,37.11
2022-08-26T09:40:35.494Z,36.60
2022-08-26T09:41:35.365Z,36.88
2022-08-26T09:42:35.369Z,36.58
2022-08-26T09:43:35.419Z,37.26
2022-08-26T09:44:35.349Z,36.33
2022-08-26T09:45:35.365Z,37.05
2022-08-26T09:46:35.451Z,37.73
2022-08-26T09:47:35.324Z,36.76
2022-08-26T09:48:36.037Z,36.74
2022-08-26T09:49:36.371Z,36.12
2022-08-26T09:50:36.320Z,35.21
2022-08-26T09:51:35.320Z,34.42
2022-08-26T09:52:35.305Z,35.60
2022-08-26T09:53:35.316Z,35.91
2022-08-26T09:54:35.297Z,35.96
2022-08-26T09:55:35.285Z,37.43
2022-08-26T09:56:35.297Z,36.99
2022-08-26T09:57:35.283Z,37.28
2022-08-26T09:58:35.277Z,37.18
2022-08-26T09:59:35.322Z,36.97
2022-08-26T10:00:35.273Z,36.95
2022-08-26T10:01:35.363Z,36.77
2022-08-26T10:02:35.262Z,36.54
2022-08-26T10:03:35.263Z,35.67
2022-08-26T10:04:35.299Z,35.46
2022-08-26T10:05:35.277Z,34.45
2022-08-26T10:06:35.241Z,35.00
2022-08-26T10:07:36.232Z,34.41
2022-08-26T10:08:35.233Z,34.29
2022-08-26T10:09:35.225Z,33.70
2022-08-26T10:10:35.230Z,33.02
2022-08-26T10:11:35.209Z,32.23
2022-08-26T10:12:35.214Z,32.23
2022-08-26T10:13:35.197Z,32.64
2022-08-26T10:14:35.218Z,33.29
2022-08-26T10:15:35.197Z,32.12
2022-08-26T10:16:35.259Z,31.45
2022-08-26T10:17:35.173Z,31.14
2022-08-26T10:18:35.184Z,30.64
2022-08-26T10:19:41.770Z,29.87
2022-08-26T10:20:36.180Z,30.87
2022-08-26T10:21:35.249Z,30.80
2022-08-26T10:22:35.160Z,31.71
2022-08-26T10:23:35.157Z,32.60
2022-08-26T10:24:35.177Z,31.71
2022-08-26T10:25:35.257Z,31.28
2022-08-26T10:26:35.144Z,29.60
2022-08-26T10:27:35.137Z,30.48
2022-08-26T10:28:35.145Z,30.51
2022-08-26T10:29:35.139Z,32.04
2022-08-26T10:30:35.145Z,31.73
2022-08-26T10:31:38.235Z,30.69
2022-08-26T10:32:36.113Z,30.00
2022-08-26T10:33:36.138Z,29.32
2022-08-26T10:34:35.118Z,30.56
2022-08-26T10:35:36.121Z,29.69
2022-08-26T10:36:43.083Z,29.89
2022-08-26T10:37:37.162Z,28.99
2022-08-26T10:38:35.089Z,29.08
2022-08-26T10:39:35.109Z,28.11
2022-08-26T10:40:35.184Z,28.12
2022-08-26T10:41:35.082Z,28.99
2022-08-26T10:42:35.109Z,28.61
2022-08-26T10:43:35.088Z,28.69
2022-08-26T10:44:35.098Z,28.80
2022-08-26T10:45:35.116Z,29.36
2022-08-26T10:46:35.090Z,29.35
2022-08-26T10:47:35.062Z,28.49
2022-08-26T10:48:35.239Z,28.19
2022-08-26T10:49:35.057Z,27.89
2022-08-26T10:50:35.053Z,27.31
2022-08-26T10:51:35.061Z,26.70
2022-08-26T10:52:35.053Z,25.52
2022-08-26T10:53:35.069Z,24.26
2022-08-26T10:54:35.045Z,23.65
2022-08-26T10:55:35.185Z,24.59
2022-08-26T10:56:35.034Z,23.89
2022-08-26T10:57:35.038Z,23.18
2022-08-26T10:58:35.037Z,22.68
2022-08-26T10:59:35.046Z,23.23
2022-08-26T11:00:35.024Z,21.69
2022-08-26T11:01:35.052Z,22.14
2022-08-26T11:02:36.054Z,19.92
2022-08-26T11:03:35.021Z,20.28
2022-08-26T11:04:35.288Z,19.99
2022-08-26T11:05:35.004Z,19.30
2022-08-26T11:06:36.995Z,18.91
2022-08-26T11:07:35.044Z,17.57
2022-08-26T11:08:34.989Z,17.66
2022-08-26T11:09:35.002Z,16.44
2022-08-26T11:10:35.022Z,17.41
2022-08-26T11:11:34.984Z,17.52
2022-08-26T11:12:35.009Z,18.96
2022-08-26T11:13:38.705Z,19.32
2022-08-26T11:14:45.990Z,18.94
2022-08-26T11:15:36.009Z,18.93
2022-08-26T11:16:35.019Z,18.16
2022-08-26T11:17:34.995Z,18.27
2022-08-26T11:18:34.978Z,18.07
2022-08-26T11:19:57.106Z,18.75
2022-08-26T11:20:36.978Z,18.17
2022-08-26T11:21:35.975Z,19.54
2022-08-26T11:22:34.970Z,20.81
2022-08-26T11:23:34.964Z,21.19
2022-08-26T11:24:34.961Z,21.17
2022-08-26T11:25:34.948Z,20.20
2022-08-26T11:26:36.289Z,19.34
2022-08-26T11:27:35.969Z,20.26
2022-08-26T11:28:34.950Z,18.93
2022-08-26T11:29:34.936Z,19.12
2022-08-26T11:30:34.940Z,19.31
2022-08-26T11:31:34.984Z,19.59
2022-08-26T11:32:34.958Z,18.93
2022-08-26T11:33:34.937Z,19.31
2022-08-26T11:34:34.936Z,19.30
2022-08-26T11:35:34.932Z,19.00
2022-08-26T11:36:34.912Z,18.55
2022-08-26T11:37:34.933Z,18.37
2022-08-26T11:38:34.930Z,18.96
2022-08-26T11:39:36.845Z,19.63
2022-08-26T11:40:34.926Z,19.56
2022-08-26T11:41:34.904Z,19.83
2022-08-26T11:42:34.926Z,19.64
2022-08-26T11:43:34.918Z,19.34
2022-08-26T11:44:34.903Z,19.35
2022-08-26T11:45:34.931Z,20.12
2022-08-26T11:46:34.886Z,20.34
2022-08-26T11:47:34.886Z,20.53
2022-08-26T11:48:34.894Z,19.89
2022-08-26T11:49:34.915Z,20.48
2022-08-26T11:50:34.886Z,21.28
2022-08-26T11:51:38.221Z,21.97
2022-08-26T11:52:35.866Z,23.53
2022-08-26T11:53:34.902Z,23.66
2022-08-26T11:54:35.624Z,24.94
2022-08-26T11:55:34.867Z,25.26
2022-08-26T11:56:34.841Z,25.06
2022-08-26T11:57:34.850Z,25.27
2022-08-26T11:58:34.837Z,26.15
2022-08-26T12:00:34.848Z,26.36
2022-08-26T12:01:34.826Z,26.07
2022-08-26T12:02:34.823Z,25.70
2022-08-26T12:03:34.905Z,26.87
2022-08-26T12:04:35.890Z,27.09
2022-08-26T12:05:34.842Z,27.59
2022-08-26T12:06:36.432Z,28.29
2022-08-26T12:07:35.806Z,28.98
2022-08-26T12:08:34.798Z,29.08
2022-08-26T12:09:34.795Z,28.89
2022-08-26T12:10:34.837Z,28.04
2022-08-26T12:11:34.795Z,28.54
2022-08-26T12:12:36.194Z,29.12
2022-08-26T12:13:35.787Z,28.26
2022-08-26T12:14:34.775Z,28.28
2022-08-26T12:15:34.772Z,28.28
2022-08-26T12:16:34.813Z,28.29
2022-08-26T12:17:34.758Z,29.36
2022-08-26T12:18:34.762Z,28.39
2022-08-26T12:19:34.751Z,28.19
2022-08-26T12:20:34.755Z,28.18
2022-08-26T12:21:35.111Z,28.28
2022-08-26T12:22:34.739Z,29.06
2022-08-26T12:23:34.735Z,29.26
2022-08-26T12:24:34.739Z,29.36
2022-08-26T12:25:36.122Z,30.11
2022-08-26T12:26:34.728Z,30.52
2022-08-26T12:27:34.710Z,30.52
2022-08-26T12:28:34.706Z,30.04
2022-08-26T12:29:34.698Z,30.34
2022-08-26T12:30:34.696Z,30.82
2022-08-26T12:31:34.736Z,31.04
2022-08-26T12:32:34.715Z,31.12
2022-08-26T12:33:34.682Z,31.02
2022-08-26T12:34:34.674Z,30.34
2022-08-26T12:35:34.674Z,31.13
2022-08-26T12:36:34.660Z,32.20
2022-08-26T12:37:34.663Z,31.81
2022-08-26T12:38:34.659Z,32.59
2022-08-26T12:39:34.652Z,32.28
2022-08-26T12:40:34.662Z,32.28
2022-08-26T12:41:34.634Z,31.12
2022-08-26T12:42:34.630Z,31.71
2022-08-26T12:43:34.647Z,31.84
2022-08-26T12:44:34.625Z,32.23
2022-08-26T12:45:35.454Z,32.73
2022-08-26T12:46:36.279Z,33.72
2022-08-26T12:47:42.645Z,33.72
2022-08-26T12:48:36.782Z,33.22
2022-08-26T12:49:34.598Z,33.51
2022-08-26T12:50:34.595Z,33.57
2022-08-26T12:51:34.589Z,32.29
2022-08-26T12:52:34.587Z,32.37
2022-08-26T12:53:34.578Z,32.28
2022-08-26T12:54:34.582Z,31.79